Liverpool Express — DDSD2 — position and weather

sailwx.info

Track history (hours):
 
Tides and Currents Weather Stations Pressure Air Temp Water Temp Dewpoint Dewpoint Depression Visibility Wind Speed Wind Dir Waves Ship Positions

Liverpool Express

Last reported at 2017-Apr-26 06:00 UTC. Time now 2017-Apr-26 21:36 UTC.
Position N 28°00' W 090°18'.

Length 281 m; draft 10.6 m.

Type: Ship. MMSI: 218025000.

Wind from 160 at 20 knots

Barometer 1006.8 mb
Air temperature 23.4 ° C
Visibility: greater than 10.8 NM
Dewpoint 18.9 ° C
Water temperature 24.4 ° C

Date/timePositionNaut miles runAvg speedWind from/ knotsBaromVisibWave heightAir tempDewpointWater temp
2017-Apr-26 06:00N 28°00' W 090°18'19616.3 160 / 201006.810.8 23.418.924.4
2017-Apr-25 18:00N 28°48' W 093°54'78 2.6 180 / 221005.8 5.4 24.819.623.8
2017-Apr-24 11:24N 29°41' W 095°00'0 0.3
2017-Apr-24 10:53N 29°41' W 095°00'1 3.2
2017-Apr-24 10:30N 29°41' W 094°59'5 9.7
2017-Apr-24 10:01N 29°36' W 094°57'1312.7
2017-Apr-24 09:01N 29°25' W 094°50'13414.8
2017-Apr-24 00:00N 27°12' W 094°36'   360 / 201010.027.0 20.812.724.6
2017-Apr-21 18:03N 19°34' W 096°05'7101.6
2017-Apr-21 18:00N 19°30' W 096°00'51091.8 120 / 51011.3 5.4 29.121.827.2
2017-Apr-21 17:59N 19°33' W 096°05'1119.2
2017-Apr-21 17:24N 19°23' W 095°60'718.2
2017-Apr-21 17:00N 19°16' W 095°58'715.2
2017-Apr-21 16:30N 19°11' W 096°04'4 7.8
2017-Apr-21 16:00N 19°12' W 096°08'0 0.8
2017-Apr-21 15:29N 19°13' W 096°08'0 0.0
2017-Apr-21 14:59N 19°13' W 096°08'0 0.0
2017-Apr-21 14:29N 19°13' W 096°08'0 0.0
2017-Apr-21 13:28N 19°13' W 096°08'0 0.0
2017-Apr-21 12:58N 19°13' W 096°08'0 0.0
2017-Apr-21 12:28N 19°13' W 096°08'0 0.0
2017-Apr-21 11:58N 19°13' W 096°08'0 0.0
2017-Apr-21 11:28N 19°13' W 096°08'0 0.0
2017-Apr-21 10:57N 19°13' W 096°08'0 0.0
2017-Apr-21 10:27N 19°13' W 096°08'0 0.0
2017-Apr-21 10:00N 19°13' W 096°08'0 0.0
2017-Apr-21 09:30N 19°13' W 096°08'0 0.0
2017-Apr-21 09:00N 19°13' W 096°08'0 0.0
2017-Apr-21 08:27N 19°13' W 096°08'0 0.0
2017-Apr-21 07:51N 19°13' W 096°08'0 0.0
2017-Apr-21 07:27N 19°13' W 096°08'0 0.0
2017-Apr-21 06:59N 19°13' W 096°08'0 0.0
2017-Apr-21 06:29N 19°13' W 096°08'0 0.0
2017-Apr-21 05:55N 19°13' W 096°08'0 0.0
2017-Apr-21 05:28N 19°13' W 096°08'0 0.0
2017-Apr-21 04:58N 19°13' W 096°08'0 0.0
2017-Apr-21 04:28N 19°13' W 096°08'0 0.0
2017-Apr-21 03:58N 19°13' W 096°08'0 0.0
2017-Apr-21 03:28N 19°13' W 096°08'0 0.0
2017-Apr-21 02:58N 19°13' W 096°08'0 0.0
2017-Apr-21 02:22N 19°13' W 096°08'0 0.0
2017-Apr-21 01:58N 19°13' W 096°08'0 0.0
2017-Apr-21 01:28N 19°13' W 096°08'0 0.0
2017-Apr-21 00:58N 19°13' W 096°08'0 0.0
2017-Apr-21 00:28N 19°13' W 096°08'0 0.0
2017-Apr-20 23:55N 19°13' W 096°08'0 0.0
2017-Apr-20 23:29N 19°13' W 096°08'0 0.0
2017-Apr-20 22:59N 19°13' W 096°08'0 0.0
2017-Apr-20 22:26N 19°13' W 096°08'0 0.0
2017-Apr-20 21:59N 19°13' W 096°08'0 0.0
2017-Apr-20 21:26N 19°13' W 096°08'0 0.0
2017-Apr-20 20:56N 19°13' W 096°08'0 0.0
2017-Apr-20 20:29N 19°13' W 096°08'0 0.0
2017-Apr-20 20:00N 19°13' W 096°08'0 0.0
2017-Apr-20 19:30N 19°13' W 096°08'0 0.0
2017-Apr-20 19:00N 19°13' W 096°08'0 0.0
2017-Apr-20 18:29N 19°13' W 096°08'0 0.1
2017-Apr-20 18:00N 19°13' W 096°08'3 5.6
2017-Apr-20 17:30N 19°12' W 096°05'4 7.2
2017-Apr-20 17:00N 19°10' W 096°02'0 0.1
2017-Apr-20 15:08N 19°10' W 096°02'0 0.0
2017-Apr-20 14:44N 19°10' W 096°02'0 0.1
2017-Apr-20 14:20N 19°10' W 096°02'0 0.0
2017-Apr-20 13:08N 19°10' W 096°02'0 0.0
2017-Apr-20 12:56N 19°10' W 096°02'0 0.0
2017-Apr-20 12:26N 19°10' W 096°02'0 0.0
2017-Apr-20 11:56N 19°10' W 096°02'0 0.0
2017-Apr-20 11:26N 19°10' W 096°02'0 0.0
2017-Apr-20 10:50N 19°10' W 096°02'0 0.0
2017-Apr-20 10:26N 19°10' W 096°02'0 0.0
2017-Apr-20 09:56N 19°10' W 096°02'0 0.0
2017-Apr-20 09:26N 19°10' W 096°02'0 0.0
2017-Apr-20 08:56N 19°10' W 096°02'0 0.0
2017-Apr-20 08:26N 19°10' W 096°02'0 0.0
2017-Apr-20 07:56N 19°10' W 096°02'0 0.0
2017-Apr-20 07:26N 19°10' W 096°02'0 0.1
2017-Apr-20 06:50N 19°10' W 096°02'0 0.0
2017-Apr-20 06:26N 19°10' W 096°02'0 0.0
2017-Apr-20 05:56N 19°10' W 096°02'0 0.0
2017-Apr-20 05:20N 19°10' W 096°02'0 0.0
2017-Apr-20 04:56N 19°10' W 096°02'0 0.0
2017-Apr-20 04:20N 19°10' W 096°02'0 0.0
2017-Apr-20 03:56N 19°10' W 096°02'0 0.0
2017-Apr-20 03:26N 19°10' W 096°02'0 0.0
2017-Apr-20 02:44N 19°10' W 096°02'0 0.0
2017-Apr-20 02:20N 19°10' W 096°02'0 0.0
2017-Apr-20 01:56N 19°10' W 096°02'0 0.0
2017-Apr-20 01:26N 19°10' W 096°02'0 0.0
2017-Apr-20 00:56N 19°10' W 096°02'0 0.0
2017-Apr-20 00:26N 19°10' W 096°02'0 0.0
2017-Apr-19 23:50N 19°10' W 096°02'0 0.0
2017-Apr-19 23:26N 19°10' W 096°02'0 0.0
2017-Apr-19 22:56N 19°10' W 096°02'0 0.1
2017-Apr-19 22:26N 19°10' W 096°02'0 0.0
2017-Apr-19 21:56N 19°10' W 096°02'0 0.0
2017-Apr-19 17:56N 19°10' W 096°02'0 0.0
2017-Apr-19 17:26N 19°10' W 096°02'0 0.0
2017-Apr-19 16:56N 19°10' W 096°02'0 0.0
2017-Apr-19 16:26N 19°10' W 096°02'0 0.1
2017-Apr-19 15:56N 19°10' W 096°02'0 0.0
2017-Apr-19 15:14N 19°10' W 096°02'0 0.1
2017-Apr-19 14:50N 19°10' W 096°02'0 0.0
2017-Apr-19 14:26N 19°10' W 096°02'0 0.0
2017-Apr-19 13:20N 19°10' W 096°02'0 0.0
2017-Apr-19 12:50N 19°10' W 096°02'0 0.0
2017-Apr-19 12:20N 19°10' W 096°02'0 0.0
2017-Apr-19 10:32N 19°10' W 096°02'0 0.1
2017-Apr-19 10:26N 19°10' W 096°02'0 0.0
2017-Apr-19 09:50N 19°10' W 096°02'0 0.1
2017-Apr-19 09:20N 19°10' W 096°02'0 0.2
2017-Apr-19 08:56N 19°10' W 096°02'0 0.3
2017-Apr-19 08:26N 19°10' W 096°02'0 0.0
2017-Apr-19 04:02N 19°10' W 096°02'0 0.0
2017-Apr-19 03:44N 19°10' W 096°02'0 0.0
2017-Apr-19 03:26N 19°10' W 096°02'0 0.0
2017-Apr-19 02:20N 19°10' W 096°02'0 0.0
2017-Apr-19 01:50N 19°10' W 096°02'0 0.1
2017-Apr-19 01:26N 19°10' W 096°02'0 0.0
2017-Apr-19 00:50N 19°10' W 096°02'0 0.0
2017-Apr-18 22:14N 19°10' W 096°02'0 0.1
2017-Apr-18 21:50N 19°10' W 096°02'0 0.0
2017-Apr-18 15:26N 19°10' W 096°02'0 0.0
2017-Apr-18 14:50N 19°10' W 096°02'0 0.0
2017-Apr-18 14:23N 19°10' W 096°02'0 0.0
2017-Apr-18 13:26N 19°10' W 096°02'0 0.2
2017-Apr-18 12:56N 19°10' W 096°02'0 0.0
2017-Apr-18 12:26N 19°10' W 096°02'0 0.1
2017-Apr-18 11:50N 19°10' W 096°02'0 0.1
2017-Apr-18 11:26N 19°10' W 096°02'0 0.0
2017-Apr-18 10:56N 19°10' W 096°02'0 0.1
2017-Apr-18 10:26N 19°10' W 096°02'0 0.5
2017-Apr-18 09:56N 19°10' W 096°02'0 0.0
2017-Apr-18 09:26N 19°10' W 096°02'0 0.0
2017-Apr-18 08:56N 19°10' W 096°02'0 0.0
2017-Apr-18 08:20N 19°10' W 096°02'0 0.0
2017-Apr-18 07:50N 19°10' W 096°02'0 0.0
2017-Apr-18 07:26N 19°10' W 096°02'0 0.0
2017-Apr-18 06:50N 19°10' W 096°02'0 0.0
2017-Apr-18 06:20N 19°10' W 096°02'0 0.1
2017-Apr-18 05:56N 19°10' W 096°02'0 0.0
2017-Apr-18 04:50N 19°10' W 096°02'0 0.1
2017-Apr-18 04:26N 19°10' W 096°02'0 0.0
2017-Apr-18 03:56N 19°10' W 096°02'0 0.0
2017-Apr-18 03:20N 19°10' W 096°02'0 0.0
2017-Apr-18 02:56N 19°10' W 096°02'0 0.0
2017-Apr-18 02:14N 19°10' W 096°02'0 0.0
2017-Apr-18 01:44N 19°10' W 096°02'0 0.1
2017-Apr-18 01:20N 19°10' W 096°02'0 0.1
2017-Apr-18 00:50N 19°10' W 096°02'0 0.0
2017-Apr-18 00:20N 19°10' W 096°02'0 0.0
2017-Apr-17 23:38N 19°10' W 096°02'0 0.1
2017-Apr-17 23:20N 19°10' W 096°02'0 0.0
2017-Apr-17 23:00N 19°10' W 096°02'0 0.1
2017-Apr-17 22:30N 19°10' W 096°02'1 1.4
2017-Apr-17 22:00N 19°11' W 096°02'5 9.4
2017-Apr-17 21:30N 19°13' W 095°58'710.7
2017-Apr-17 20:53N 19°15' W 095°51'511.0
2017-Apr-17 20:27N 19°15' W 095°46'510.8
2017-Apr-17 19:57N 19°17' W 095°41'810.9
2017-Apr-17 19:13N 19°22' W 095°34'1512.3
2017-Apr-17 18:00N 19°24' W 095°18'48613.5 150 / 51014.0 5.4 31.121.026.6
2017-Apr-16 06:00N 22°18' W 087°12'   080 / 131017.3 5.4 25.019.825.8
Track history (hours):
 
Tides and Currents Weather Stations Pressure Air Temp Water Temp Dewpoint Dewpoint Depression Visibility Wind Speed Wind Dir Waves Ship Positions

Liverpool Express

Last reported at 2017-Apr-26 06:00 UTC. Time now 2017-Apr-26 21:36 UTC.
Position N 28°00' W 090°18'.

Length 281 m; draft 10.6 m.

Type: Ship. MMSI: 218025000.

Wind from 160 at 20 knots

Barometer 1006.8 mb
Air temperature 23.4 ° C
Visibility: greater than 10.8 NM
Dewpoint 18.9 ° C
Water temperature 24.4 ° C

Date/timePositionNaut miles runAvg speedWind from/ knotsBaromVisibWave heightAir tempDewpointWater temp
2017-Apr-26 06:00N 28°00' W 090°18'19616.3 160 / 201006.810.8 23.418.924.4
2017-Apr-25 18:00N 28°48' W 093°54'78 2.6 180 / 221005.8 5.4 24.819.623.8
2017-Apr-24 11:24N 29°41' W 095°00'0 0.3
2017-Apr-24 10:53N 29°41' W 095°00'1 3.2
2017-Apr-24 10:30N 29°41' W 094°59'5 9.7
2017-Apr-24 10:01N 29°36' W 094°57'1312.7
2017-Apr-24 09:01N 29°25' W 094°50'13414.8
2017-Apr-24 00:00N 27°12' W 094°36'   360 / 201010.027.0 20.812.724.6
2017-Apr-21 18:03N 19°34' W 096°05'7101.6
2017-Apr-21 18:00N 19°30' W 096°00'51091.8 120 / 51011.3 5.4 29.121.827.2
2017-Apr-21 17:59N 19°33' W 096°05'1119.2
2017-Apr-21 17:24N 19°23' W 095°60'718.2
2017-Apr-21 17:00N 19°16' W 095°58'715.2
2017-Apr-21 16:30N 19°11' W 096°04'4 7.8
2017-Apr-21 16:00N 19°12' W 096°08'0 0.8
2017-Apr-21 15:29N 19°13' W 096°08'0 0.0
2017-Apr-21 14:59N 19°13' W 096°08'0 0.0
2017-Apr-21 14:29N 19°13' W 096°08'0 0.0
2017-Apr-21 13:28N 19°13' W 096°08'0 0.0
2017-Apr-21 12:58N 19°13' W 096°08'0 0.0
2017-Apr-21 12:28N 19°13' W 096°08'0 0.0
2017-Apr-21 11:58N 19°13' W 096°08'0 0.0
2017-Apr-21 11:28N 19°13' W 096°08'0 0.0
2017-Apr-21 10:57N 19°13' W 096°08'0 0.0
2017-Apr-21 10:27N 19°13' W 096°08'0 0.0
2017-Apr-21 10:00N 19°13' W 096°08'0 0.0
2017-Apr-21 09:30N 19°13' W 096°08'0 0.0
2017-Apr-21 09:00N 19°13' W 096°08'0 0.0
2017-Apr-21 08:27N 19°13' W 096°08'0 0.0
2017-Apr-21 07:51N 19°13' W 096°08'0 0.0
2017-Apr-21 07:27N 19°13' W 096°08'0 0.0
2017-Apr-21 06:59N 19°13' W 096°08'0 0.0
2017-Apr-21 06:29N 19°13' W 096°08'0 0.0
2017-Apr-21 05:55N 19°13' W 096°08'0 0.0
2017-Apr-21 05:28N 19°13' W 096°08'0 0.0
2017-Apr-21 04:58N 19°13' W 096°08'0 0.0
2017-Apr-21 04:28N 19°13' W 096°08'0 0.0
2017-Apr-21 03:58N 19°13' W 096°08'0 0.0
2017-Apr-21 03:28N 19°13' W 096°08'0 0.0
2017-Apr-21 02:58N 19°13' W 096°08'0 0.0
2017-Apr-21 02:22N 19°13' W 096°08'0 0.0
2017-Apr-21 01:58N 19°13' W 096°08'0 0.0
2017-Apr-21 01:28N 19°13' W 096°08'0 0.0
2017-Apr-21 00:58N 19°13' W 096°08'0 0.0
2017-Apr-21 00:28N 19°13' W 096°08'0 0.0
2017-Apr-20 23:55N 19°13' W 096°08'0 0.0
2017-Apr-20 23:29N 19°13' W 096°08'0 0.0
2017-Apr-20 22:59N 19°13' W 096°08'0 0.0
2017-Apr-20 22:26N 19°13' W 096°08'0 0.0
2017-Apr-20 21:59N 19°13' W 096°08'0 0.0
2017-Apr-20 21:26N 19°13' W 096°08'0 0.0
2017-Apr-20 20:56N 19°13' W 096°08'0 0.0
2017-Apr-20 20:29N 19°13' W 096°08'0 0.0
2017-Apr-20 20:00N 19°13' W 096°08'0 0.0
2017-Apr-20 19:30N 19°13' W 096°08'0 0.0
2017-Apr-20 19:00N 19°13' W 096°08'0 0.0
2017-Apr-20 18:29N 19°13' W 096°08'0 0.1
2017-Apr-20 18:00N 19°13' W 096°08'3 5.6
2017-Apr-20 17:30N 19°12' W 096°05'4 7.2
2017-Apr-20 17:00N 19°10' W 096°02'0 0.1
2017-Apr-20 15:08N 19°10' W 096°02'0 0.0
2017-Apr-20 14:44N 19°10' W 096°02'0 0.1
2017-Apr-20 14:20N 19°10' W 096°02'0 0.0
2017-Apr-20 13:08N 19°10' W 096°02'0 0.0
2017-Apr-20 12:56N 19°10' W 096°02'0 0.0
2017-Apr-20 12:26N 19°10' W 096°02'0 0.0
2017-Apr-20 11:56N 19°10' W 096°02'0 0.0
2017-Apr-20 11:26N 19°10' W 096°02'0 0.0
2017-Apr-20 10:50N 19°10' W 096°02'0 0.0
2017-Apr-20 10:26N 19°10' W 096°02'0 0.0
2017-Apr-20 09:56N 19°10' W 096°02'0 0.0
2017-Apr-20 09:26N 19°10' W 096°02'0 0.0
2017-Apr-20 08:56N 19°10' W 096°02'0 0.0
2017-Apr-20 08:26N 19°10' W 096°02'0 0.0
2017-Apr-20 07:56N 19°10' W 096°02'0 0.0
2017-Apr-20 07:26N 19°10' W 096°02'0 0.1
2017-Apr-20 06:50N 19°10' W 096°02'0 0.0
2017-Apr-20 06:26N 19°10' W 096°02'0 0.0
2017-Apr-20 05:56N 19°10' W 096°02'0 0.0
2017-Apr-20 05:20N 19°10' W 096°02'0 0.0
2017-Apr-20 04:56N 19°10' W 096°02'0 0.0
2017-Apr-20 04:20N 19°10' W 096°02'0 0.0
2017-Apr-20 03:56N 19°10' W 096°02'0 0.0
2017-Apr-20 03:26N 19°10' W 096°02'0 0.0
2017-Apr-20 02:44N 19°10' W 096°02'0 0.0
2017-Apr-20 02:20N 19°10' W 096°02'0 0.0
2017-Apr-20 01:56N 19°10' W 096°02'0 0.0
2017-Apr-20 01:26N 19°10' W 096°02'0 0.0
2017-Apr-20 00:56N 19°10' W 096°02'0 0.0
2017-Apr-20 00:26N 19°10' W 096°02'0 0.0
2017-Apr-19 23:50N 19°10' W 096°02'0 0.0
2017-Apr-19 23:26N 19°10' W 096°02'0 0.0
2017-Apr-19 22:56N 19°10' W 096°02'0 0.1
2017-Apr-19 22:26N 19°10' W 096°02'0 0.0
2017-Apr-19 21:56N 19°10' W 096°02'0 0.0
2017-Apr-19 17:56N 19°10' W 096°02'0 0.0
2017-Apr-19 17:26N 19°10' W 096°02'0 0.0
2017-Apr-19 16:56N 19°10' W 096°02'0 0.0
2017-Apr-19 16:26N 19°10' W 096°02'0 0.1
2017-Apr-19 15:56N 19°10' W 096°02'0 0.0
2017-Apr-19 15:14N 19°10' W 096°02'0 0.1
2017-Apr-19 14:50N 19°10' W 096°02'0 0.0
2017-Apr-19 14:26N 19°10' W 096°02'0 0.0
2017-Apr-19 13:20N 19°10' W 096°02'0 0.0
2017-Apr-19 12:50N 19°10' W 096°02'0 0.0
2017-Apr-19 12:20N 19°10' W 096°02'0 0.0
2017-Apr-19 10:32N 19°10' W 096°02'0 0.1
2017-Apr-19 10:26N 19°10' W 096°02'0 0.0
2017-Apr-19 09:50N 19°10' W 096°02'0 0.1
2017-Apr-19 09:20N 19°10' W 096°02'0 0.2
2017-Apr-19 08:56N 19°10' W 096°02'0 0.3
2017-Apr-19 08:26N 19°10' W 096°02'0 0.0
2017-Apr-19 04:02N 19°10' W 096°02'0 0.0
2017-Apr-19 03:44N 19°10' W 096°02'0 0.0
2017-Apr-19 03:26N 19°10' W 096°02'0 0.0
2017-Apr-19 02:20N 19°10' W 096°02'0 0.0
2017-Apr-19 01:50N 19°10' W 096°02'0 0.1
2017-Apr-19 01:26N 19°10' W 096°02'0 0.0
2017-Apr-19 00:50N 19°10' W 096°02'0 0.0
2017-Apr-18 22:14N 19°10' W 096°02'0 0.1
2017-Apr-18 21:50N 19°10' W 096°02'0 0.0
2017-Apr-18 15:26N 19°10' W 096°02'0 0.0
2017-Apr-18 14:50N 19°10' W 096°02'0 0.0
2017-Apr-18 14:23N 19°10' W 096°02'0 0.0
2017-Apr-18 13:26N 19°10' W 096°02'0 0.2
2017-Apr-18 12:56N 19°10' W 096°02'0 0.0
2017-Apr-18 12:26N 19°10' W 096°02'0 0.1
2017-Apr-18 11:50N 19°10' W 096°02'0 0.1
2017-Apr-18 11:26N 19°10' W 096°02'0 0.0
2017-Apr-18 10:56N 19°10' W 096°02'0 0.1
2017-Apr-18 10:26N 19°10' W 096°02'0 0.5
2017-Apr-18 09:56N 19°10' W 096°02'0 0.0
2017-Apr-18 09:26N 19°10' W 096°02'0 0.0
2017-Apr-18 08:56N 19°10' W 096°02'0 0.0
2017-Apr-18 08:20N 19°10' W 096°02'0 0.0
2017-Apr-18 07:50N 19°10' W 096°02'0 0.0
2017-Apr-18 07:26N 19°10' W 096°02'0 0.0
2017-Apr-18 06:50N 19°10' W 096°02'0 0.0
2017-Apr-18 06:20N 19°10' W 096°02'0 0.1
2017-Apr-18 05:56N 19°10' W 096°02'0 0.0
2017-Apr-18 04:50N 19°10' W 096°02'0 0.1
2017-Apr-18 04:26N 19°10' W 096°02'0 0.0
2017-Apr-18 03:56N 19°10' W 096°02'0 0.0
2017-Apr-18 03:20N 19°10' W 096°02'0 0.0
2017-Apr-18 02:56N 19°10' W 096°02'0 0.0
2017-Apr-18 02:14N 19°10' W 096°02'0 0.0
2017-Apr-18 01:44N 19°10' W 096°02'0 0.1
2017-Apr-18 01:20N 19°10' W 096°02'0 0.1
2017-Apr-18 00:50N 19°10' W 096°02'0 0.0
2017-Apr-18 00:20N 19°10' W 096°02'0 0.0
2017-Apr-17 23:38N 19°10' W 096°02'0 0.1
2017-Apr-17 23:20N 19°10' W 096°02'0 0.0
2017-Apr-17 23:00N 19°10' W 096°02'0 0.1
2017-Apr-17 22:30N 19°10' W 096°02'1 1.4
2017-Apr-17 22:00N 19°11' W 096°02'5 9.4
2017-Apr-17 21:30N 19°13' W 095°58'710.7
2017-Apr-17 20:53N 19°15' W 095°51'511.0
2017-Apr-17 20:27N 19°15' W 095°46'510.8
2017-Apr-17 19:57N 19°17' W 095°41'810.9
2017-Apr-17 19:13N 19°22' W 095°34'1512.3
2017-Apr-17 18:00N 19°24' W 095°18'48613.5 150 / 51014.0 5.4 31.121.026.6
2017-Apr-16 06:00N 22°18' W 087°12'   080 / 131017.3 5.4 25.019.825.8

Dump ship's entire track history